Thursday, September 20, 2018, 10:11 PM EDT
Back to Local

KLEB, Lebanon Municipal Airport

Location: Lebanon, NH, United States Lat: 43.633
Local Time: 10:11 PM EDT ( 2:11 GMT) Lon: -72.3
Time Zone: US/Eastern Elev: 597 ft

Show me the last for .
Show Decoded

2018-09-20 21:53 METAR KLEB 210153Z 00000KT 10SM SCT039 OVC090 16/13 A3025 RMK AO2 SLP240
                 T01560128 =
2018-09-20 20:53 METAR KLEB 210053Z 00000KT 10SM BKN036 OVC090 17/12 A3026 RMK AO2 SLP242
                 T01670122 =
2018-09-20 20:25 METAR KLEB 210025Z 00000KT 10SM FEW025 OVC031 17/12 A3027 RMK AO2 T01720122 =
2018-09-20 19:53 METAR KLEB 202353Z VRB03KT 10SM BKN025 OVC035 17/12 A3025 RMK AO2 SLP239
                 T01720117 10194 20167 51006 =
2018-09-20 18:53 METAR KLEB 202253Z 00000KT 10SM SCT023 BKN039 OVC120 17/13 A3025 RMK AO2 SLP238
                 T01720128 =
2018-09-20 17:53 METAR KLEB 202153Z 00000KT 10SM BKN039 18/12 A3023 RMK AO2 SLP233 T01780122 =
2018-09-20 16:53 METAR KLEB 202053Z 13003KT 10SM BKN044 18/12 A3022 RMK AO2 SLP228 T01830122
                 56003 =
2018-09-20 15:53 METAR KLEB 201953Z 00000KT 10SM SCT044 19/12 A3023 RMK AO2 SLP231 T01940122 =
2018-09-20 14:53 METAR KLEB 201853Z VRB04KT 10SM FEW026 BKN034 19/12 A3020 RMK AO2 SLP223
                 T01890117 =
2018-09-20 13:53 METAR KLEB 201753Z VRB03KT 10SM SCT023 BKN030 BKN037 19/12 A3023 RMK AO2 SLP232
                 T01890117 10189 20133 58015 =
2018-09-20 13:11 METAR KLEB 201711Z 00000KT 10SM FEW020 SCT026 OVC033 18/11 A3024 RMK AO2
                 T01830111 =
2018-09-20 12:53 METAR KLEB 201653Z 22005KT 10SM FEW021 BKN028 BKN035 18/12 A3025 RMK AO2 SLP239
                 T01780117 =
2018-09-20 12:33 METAR KLEB 201633Z 18003KT 10SM SCT022 18/12 A3025 RMK AO2 T01780117 =
2018-09-20 12:05 METAR KLEB 201605Z 29003KT 10SM SCT018 BKN023 OVC046 18/12 A3026 RMK AO2
                 T01780117 =
2018-09-20 11:53 METAR KLEB 201553Z VRB03KT 10SM FEW017 BKN037 OVC045 17/12 A3026 RMK AO2 SLP243
                 T01720117 =
2018-09-20 10:53 METAR KLEB 201453Z 00000KT 10SM SCT018 SCT024 OVC030 16/11 A3027 RMK AO2 SLP249
                 T01560111 53009 =
2018-09-20 10:32 METAR KLEB 201432Z 00000KT 10SM FEW019 BKN028 OVC032 16/11 A3027 RMK AO2
                 T01560111 =
2018-09-20 10:22 METAR KLEB 201422Z 00000KT 10SM FEW019 OVC030 16/11 A3027 RMK AO2 T01560111 =
2018-09-20 09:53 METAR KLEB 201353Z 00000KT 10SM BKN017 OVC026 15/11 A3027 RMK AO2 SLP246
                 T01500106 =
2018-09-20 08:53 METAR KLEB 201253Z 00000KT 10SM OVC016 14/11 A3025 RMK AO2 SLP239 T01390106 =
2018-09-20 08:49 METAR KLEB 201249Z 00000KT 10SM OVC014 14/11 A3025 RMK AO2 =
2018-09-20 08:07 METAR KLEB 201207Z 36004KT 10SM OVC015 13/10 A3024 RMK AO2 T01330100 =
2018-09-20 07:53 METAR KLEB 201153Z 35003KT 10SM OVC014 14/11 A3023 RMK AO2 SLP232 T01390106
                 10139 20117 53023 =
2018-09-20 06:53 METAR KLEB 201053Z 36003KT 10SM OVC014 13/10 A3020 RMK AO2 SLP222 T01330100 =
2018-09-20 05:53 METAR KLEB 200953Z AUTO 00000KT 10SM OVC015 13/10 A3017 RMK AO2 SLP213 T01330100
                 =
2018-09-20 05:10 METAR KLEB 200910Z AUTO 36004KT 10SM OVC014 13/10 A3017 RMK AO2 T01330100 =
2018-09-20 04:53 METAR KLEB 200853Z AUTO 00000KT 10SM OVC015 13/10 A3016 RMK AO2 SLP209 T01330100
                 51005 =
2018-09-20 03:53 METAR KLEB 200753Z AUTO 00000KT 10SM OVC018 13/09 A3016 RMK AO2 SLP209 T01280094
                 =
2018-09-20 02:53 METAR KLEB 200653Z AUTO 02003KT 10SM OVC020 12/09 A3016 RMK AO2 SLP209 T01220094
                 =
2018-09-20 02:04 METAR KLEB 200604Z AUTO 00000KT 10SM BKN024 BKN035 OVC042 12/10 A3015 RMK AO2
                 T01220100 =
2018-09-20 01:53 METAR KLEB 200553Z AUTO 00000KT 10SM FEW022 BKN035 OVC043 12/09 A3015 RMK AO2
                 SLP204 T01170094 10172 20106 50005 =
2018-09-20 00:53 METAR KLEB 200453Z AUTO 00000KT 10SM BKN036 11/09 A3015 RMK AO2 SLP205 T01110089
                 402280106 =
2018-09-19 23:53 METAR KLEB 200353Z AUTO 18004KT 10SM CLR 11/09 A3014 RMK AO2 SLP200 T01110089 =
2018-09-19 22:53 METAR KLEB 200253Z AUTO 00000KT 10SM CLR 12/09 A3013 RMK AO2 SLP199 T01220094
                 52018 =

Support USWX by starting your Amazon purchase here.